sensor_id;sensor_type;location;lat;lon;timestamp;pressure;altitude;pressure_sealevel;temperature;humidity
62237;BME280;69163;48.778;2.308;2024-03-08T00:01:29;100234.34;;;20.80;27.11
62237;BME280;69163;48.778;2.308;2024-03-08T00:03:55;100234.79;;;20.88;27.02
62237;BME280;69163;48.778;2.308;2024-03-08T00:06:21;100234.60;;;20.39;26.98
62237;BME280;69163;48.778;2.308;2024-03-08T00:08:56;100232.51;;;20.62;26.94
62237;BME280;69163;48.778;2.308;2024-03-08T00:11:11;100230.84;;;20.87;26.89
62237;BME280;69163;48.778;2.308;2024-03-08T00:13:37;100225.81;;;20.40;26.81
62237;BME280;69163;48.778;2.308;2024-03-08T00:16:02;100225.89;;;20.87;26.78
62237;BME280;69163;48.778;2.308;2024-03-08T00:18:27;100218.72;;;20.60;26.74
62237;BME280;69163;48.778;2.308;2024-03-08T00:20:53;100215.28;;;20.55;26.74
62237;BME280;69163;48.778;2.308;2024-03-08T00:23:19;100213.85;;;20.81;26.68
62237;BME280;69163;48.778;2.308;2024-03-08T00:25:44;100207.15;;;21.03;26.67
62237;BME280;69163;48.778;2.308;2024-03-08T00:28:09;100202.56;;;20.78;26.66
62237;BME280;69163;48.778;2.308;2024-03-08T00:30:35;100201.04;;;20.78;26.63
62237;BME280;69163;48.778;2.308;2024-03-08T00:33:00;100197.53;;;20.79;26.56
62237;BME280;69163;48.778;2.308;2024-03-08T00:35:25;100196.82;;;20.59;26.49
62237;BME280;69163;48.778;2.308;2024-03-08T00:37:50;100195.66;;;20.61;26.43
62237;BME280;69163;48.778;2.308;2024-03-08T00:40:16;100198.13;;;20.60;26.42
62237;BME280;69163;48.778;2.308;2024-03-08T00:42:42;100192.21;;;20.83;26.41
62237;BME280;69163;48.778;2.308;2024-03-08T00:45:08;100181.33;;;20.57;26.39
62237;BME280;69163;48.778;2.308;2024-03-08T00:47:33;100173.99;;;20.25;26.41
62237;BME280;69163;48.778;2.308;2024-03-08T00:49:58;100173.07;;;20.32;26.32
62237;BME280;69163;48.778;2.308;2024-03-08T00:52:23;100174.05;;;20.87;26.21
62237;BME280;69163;48.778;2.308;2024-03-08T00:54:49;100167.48;;;20.66;26.15
62237;BME280;69163;48.778;2.308;2024-03-08T00:57:14;100162.53;;;20.92;26.13
62237;BME280;69163;48.778;2.308;2024-03-08T00:59:43;100161.63;;;20.89;26.11
62237;BME280;69163;48.778;2.308;2024-03-08T01:02:07;100158.51;;;20.90;26.07
62237;BME280;69163;48.778;2.308;2024-03-08T01:04:32;100155.65;;;20.86;26.09
62237;BME280;69163;48.778;2.308;2024-03-08T01:06:57;100151.36;;;20.87;26.06
62237;BME280;69163;48.778;2.308;2024-03-08T01:09:23;100146.20;;;20.87;26.02
62237;BME280;69163;48.778;2.308;2024-03-08T01:11:49;100142.04;;;20.85;25.99
62237;BME280;69163;48.778;2.308;2024-03-08T01:14:15;100138.09;;;20.65;25.96
62237;BME280;69163;48.778;2.308;2024-03-08T01:16:39;100134.97;;;20.91;25.96
62237;BME280;69163;48.778;2.308;2024-03-08T01:19:05;100131.00;;;20.71;25.89
62237;BME280;69163;48.778;2.308;2024-03-08T01:21:30;100127.91;;;21.17;25.85
62237;BME280;69163;48.778;2.308;2024-03-08T01:23:55;100123.70;;;20.93;25.80
62237;BME280;69163;48.778;2.308;2024-03-08T01:26:20;100118.67;;;20.69;25.76
62237;BME280;69163;48.778;2.308;2024-03-08T01:28:45;100116.67;;;20.89;25.78
62237;BME280;69163;48.778;2.308;2024-03-08T01:31:11;100116.12;;;20.94;25.73
62237;BME280;69163;48.778;2.308;2024-03-08T01:33:36;100113.71;;;20.95;25.72
62237;BME280;69163;48.778;2.308;2024-03-08T01:36:02;100113.74;;;20.99;25.66
62237;BME280;69163;48.778;2.308;2024-03-08T01:38:27;100109.56;;;20.51;25.62
62237;BME280;69163;48.778;2.308;2024-03-08T01:40:53;100108.77;;;20.96;25.62
62237;BME280;69163;48.778;2.308;2024-03-08T01:43:25;100103.29;;;20.51;25.57
62237;BME280;69163;48.778;2.308;2024-03-08T01:45:44;100099.43;;;20.51;25.48
62237;BME280;69163;48.778;2.308;2024-03-08T01:48:09;100095.30;;;20.74;25.47
62237;BME280;69163;48.778;2.308;2024-03-08T01:50:35;100093.59;;;20.98;25.47
62237;BME280;69163;48.778;2.308;2024-03-08T01:53:01;100088.65;;;21.02;25.44
62237;BME280;69163;48.778;2.308;2024-03-08T01:55:26;100086.94;;;21.03;25.44
62237;BME280;69163;48.778;2.308;2024-03-08T01:57:51;100083.36;;;21.05;25.35
62237;BME280;69163;48.778;2.308;2024-03-08T02:00:17;100081.38;;;21.06;25.34
62237;BME280;69163;48.778;2.308;2024-03-08T02:02:42;100079.60;;;21.04;25.33
62237;BME280;69163;48.778;2.308;2024-03-08T02:05:08;100076.72;;;21.03;25.30
62237;BME280;69163;48.778;2.308;2024-03-08T02:07:33;100075.29;;;20.79;25.29
62237;BME280;69163;48.778;2.308;2024-03-08T02:09:58;100072.62;;;21.05;25.26
62237;BME280;69163;48.778;2.308;2024-03-08T02:12:24;100064.52;;;20.55;25.25
62237;BME280;69163;48.778;2.308;2024-03-08T02:14:48;100060.75;;;20.80;25.24
62237;BME280;69163;48.778;2.308;2024-03-08T02:17:14;100055.43;;;21.06;25.21
62237;BME280;69163;48.778;2.308;2024-03-08T02:19:40;100052.34;;;21.08;25.19
62237;BME280;69163;48.778;2.308;2024-03-08T02:22:05;100049.98;;;20.82;25.17
62237;BME280;69163;48.778;2.308;2024-03-08T02:24:30;100045.89;;;20.59;25.13
62237;BME280;69163;48.778;2.308;2024-03-08T02:26:56;100041.59;;;20.80;25.14
62237;BME280;69163;48.778;2.308;2024-03-08T02:29:22;100035.84;;;20.81;25.11
62237;BME280;69163;48.778;2.308;2024-03-08T02:31:50;100033.54;;;21.03;25.11
62237;BME280;69163;48.778;2.308;2024-03-08T02:34:13;100027.73;;;20.78;25.11
62237;BME280;69163;48.778;2.308;2024-03-08T02:36:39;100024.14;;;21.01;25.09
62237;BME280;69163;48.778;2.308;2024-03-08T02:39:05;100019.26;;;20.78;25.05
62237;BME280;69163;48.778;2.308;2024-03-08T02:41:30;100012.76;;;21.04;25.04
62237;BME280;69163;48.778;2.308;2024-03-08T02:43:55;100008.81;;;20.79;25.02
62237;BME280;69163;48.778;2.308;2024-03-08T02:46:21;100004.09;;;20.78;25.01
62237;BME280;69163;48.778;2.308;2024-03-08T02:48:46;99995.55;;;20.77;25.00
62237;BME280;69163;48.778;2.308;2024-03-08T02:51:11;99989.63;;;21.25;24.96
62237;BME280;69163;48.778;2.308;2024-03-08T02:53:36;99982.95;;;20.77;24.96
62237;BME280;69163;48.778;2.308;2024-03-08T02:56:01;99981.11;;;20.74;24.94
62237;BME280;69163;48.778;2.308;2024-03-08T02:58:27;99974.81;;;20.74;24.96
62237;BME280;69163;48.778;2.308;2024-03-08T03:00:53;99969.83;;;20.74;24.93
62237;BME280;69163;48.778;2.308;2024-03-08T03:03:18;99966.61;;;20.74;24.92
62237;BME280;69163;48.778;2.308;2024-03-08T03:05:44;99962.55;;;20.75;24.90
62237;BME280;69163;48.778;2.308;2024-03-08T03:08:10;99956.03;;;20.98;24.84
62237;BME280;69163;48.778;2.308;2024-03-08T03:10:35;99952.77;;;20.52;24.84
62237;BME280;69163;48.778;2.308;2024-03-08T03:13:01;99949.99;;;20.50;24.86
62237;BME280;69163;48.778;2.308;2024-03-08T03:15:26;99950.03;;;20.76;24.84
62237;BME280;69163;48.778;2.308;2024-03-08T03:17:52;99950.40;;;20.95;24.84
62237;BME280;69163;48.778;2.308;2024-03-08T03:20:17;99946.15;;;20.92;24.87
62237;BME280;69163;48.778;2.308;2024-03-08T03:22:42;99944.22;;;20.95;24.84
62237;BME280;69163;48.778;2.308;2024-03-08T03:25:09;99937.43;;;20.72;24.84
62237;BME280;69163;48.778;2.308;2024-03-08T03:27:33;99930.37;;;20.94;24.86
62237;BME280;69163;48.778;2.308;2024-03-08T03:29:58;99923.10;;;20.69;24.88
62237;BME280;69163;48.778;2.308;2024-03-08T03:32:24;99918.03;;;20.86;24.94
62237;BME280;69163;48.778;2.308;2024-03-08T03:34:49;99921.05;;;20.87;24.96
62237;BME280;69163;48.778;2.308;2024-03-08T03:37:15;99926.10;;;21.11;24.99
62237;BME280;69163;48.778;2.308;2024-03-08T03:39:50;99929.91;;;20.61;25.07
62237;BME280;69163;48.778;2.308;2024-03-08T03:42:06;99927.97;;;20.82;25.01
62237;BME280;69163;48.778;2.308;2024-03-08T03:44:31;99927.87;;;20.84;25.01
62237;BME280;69163;48.778;2.308;2024-03-08T03:46:56;99923.55;;;20.37;25.00
62237;BME280;69163;48.778;2.308;2024-03-08T03:49:21;99921.10;;;20.86;24.99
62237;BME280;69163;48.778;2.308;2024-03-08T03:51:47;99922.06;;;20.30;25.02
62237;BME280;69163;48.778;2.308;2024-03-08T03:54:13;99918.86;;;20.81;25.01
62237;BME280;69163;48.778;2.308;2024-03-08T03:56:39;99915.26;;;20.58;24.99
62237;BME280;69163;48.778;2.308;2024-03-08T03:59:03;99915.57;;;20.83;24.95
62237;BME280;69163;48.778;2.308;2024-03-08T04:01:29;99915.89;;;20.80;25.01
62237;BME280;69163;48.778;2.308;2024-03-08T04:03:54;99915.90;;;20.54;25.01
62237;BME280;69163;48.778;2.308;2024-03-08T04:06:20;99915.06;;;20.56;24.95
62237;BME280;69163;48.778;2.308;2024-03-08T04:08:45;99916.03;;;20.84;24.94
62237;BME280;69163;48.778;2.308;2024-03-08T04:11:11;99909.45;;;20.82;24.94
62237;BME280;69163;48.778;2.308;2024-03-08T04:13:36;99905.24;;;20.79;24.97
62237;BME280;69163;48.778;2.308;2024-03-08T04:16:02;99900.15;;;20.77;24.97
62237;BME280;69163;48.778;2.308;2024-03-08T04:18:27;99898.63;;;20.78;24.97
62237;BME280;69163;48.778;2.308;2024-03-08T04:20:53;99900.04;;;20.77;24.98
62237;BME280;69163;48.778;2.308;2024-03-08T04:23:18;99896.75;;;20.78;24.94
62237;BME280;69163;48.778;2.308;2024-03-08T04:25:43;99893.92;;;20.78;24.93
62237;BME280;69163;48.778;2.308;2024-03-08T04:28:09;99887.78;;;20.79;24.92
62237;BME280;69163;48.778;2.308;2024-03-08T04:30:34;99886.32;;;20.82;24.91
62237;BME280;69163;48.778;2.308;2024-03-08T04:33:00;99889.25;;;20.80;24.92
62237;BME280;69163;48.778;2.308;2024-03-08T04:35:30;99885.90;;;20.75;24.93
62237;BME280;69163;48.778;2.308;2024-03-08T04:37:50;99878.86;;;20.29;24.87
62237;BME280;69163;48.778;2.308;2024-03-08T04:40:16;99876.58;;;20.74;24.97
62237;BME280;69163;48.778;2.308;2024-03-08T04:42:42;99878.53;;;20.54;24.97
62237;BME280;69163;48.778;2.308;2024-03-08T04:45:08;99874.91;;;20.74;24.96
62237;BME280;69163;48.778;2.308;2024-03-08T04:47:32;99865.05;;;20.53;24.91
62237;BME280;69163;48.778;2.308;2024-03-08T04:49:58;99865.06;;;20.52;24.93
62237;BME280;69163;48.778;2.308;2024-03-08T04:52:23;99867.04;;;20.81;25.26
62237;BME280;69163;48.778;2.308;2024-03-08T04:54:49;99865.90;;;20.85;25.69
62237;BME280;69163;48.778;2.308;2024-03-08T04:57:14;99859.35;;;20.61;26.09
62237;BME280;69163;48.778;2.308;2024-03-08T04:59:40;99851.12;;;20.87;26.29
62237;BME280;69163;48.778;2.308;2024-03-08T05:02:05;99845.82;;;20.88;26.51
62237;BME280;69163;48.778;2.308;2024-03-08T05:04:30;99841.28;;;20.88;26.74
62237;BME280;69163;48.778;2.308;2024-03-08T05:06:56;99839.73;;;20.88;26.87
62237;BME280;69163;48.778;2.308;2024-03-08T05:09:21;99833.35;;;20.88;26.83
62237;BME280;69163;48.778;2.308;2024-03-08T05:11:46;99829.70;;;20.63;26.94
62237;BME280;69163;48.778;2.308;2024-03-08T05:14:12;99829.33;;;20.35;26.97
62237;BME280;69163;48.778;2.308;2024-03-08T05:16:37;99829.74;;;20.56;27.07
62237;BME280;69163;48.778;2.308;2024-03-08T05:19:03;99829.58;;;20.56;27.07
62237;BME280;69163;48.778;2.308;2024-03-08T05:21:28;99828.26;;;20.31;27.00
62237;BME280;69163;48.778;2.308;2024-03-08T05:23:54;99828.15;;;20.79;27.02
62237;BME280;69163;48.778;2.308;2024-03-08T05:26:19;99820.25;;;21.03;26.99
62237;BME280;69163;48.778;2.308;2024-03-08T05:28:45;99818.17;;;21.05;26.89
62237;BME280;69163;48.778;2.308;2024-03-08T05:31:10;99824.39;;;20.80;26.89
62237;BME280;69163;48.778;2.308;2024-03-08T05:33:36;99824.58;;;21.02;26.93
62237;BME280;69163;48.778;2.308;2024-03-08T05:36:02;99820.30;;;20.77;26.86
62237;BME280;69163;48.778;2.308;2024-03-08T05:38:27;99826.56;;;20.77;26.84
62237;BME280;69163;48.778;2.308;2024-03-08T05:40:52;99826.64;;;20.74;26.81
62237;BME280;69163;48.778;2.308;2024-03-08T05:43:18;99828.65;;;20.51;26.74
62237;BME280;69163;48.778;2.308;2024-03-08T05:45:43;99829.37;;;20.75;26.70
62237;BME280;69163;48.778;2.308;2024-03-08T05:48:09;99832.58;;;20.76;26.64
62237;BME280;69163;48.778;2.308;2024-03-08T05:50:35;99829.03;;;20.77;26.60
62237;BME280;69163;48.778;2.308;2024-03-08T05:53:00;99829.13;;;20.58;26.53
62237;BME280;69163;48.778;2.308;2024-03-08T05:55:25;99829.94;;;20.60;26.52
62237;BME280;69163;48.778;2.308;2024-03-08T05:57:51;99826.91;;;21.11;26.42
62237;BME280;69163;48.778;2.308;2024-03-08T06:00:17;99822.11;;;20.85;26.42
62237;BME280;69163;48.778;2.308;2024-03-08T06:02:43;99817.81;;;20.85;26.36
62237;BME280;69163;48.778;2.308;2024-03-08T06:05:09;99814.32;;;20.39;26.33
62237;BME280;69163;48.778;2.308;2024-03-08T06:07:34;99812.27;;;20.36;26.32
62237;BME280;69163;48.778;2.308;2024-03-08T06:09:59;99807.45;;;20.81;26.35
62237;BME280;69163;48.778;2.308;2024-03-08T06:12:24;99803.98;;;20.78;26.35
62237;BME280;69163;48.778;2.308;2024-03-08T06:14:49;99802.29;;;20.48;26.34
62237;BME280;69163;48.778;2.308;2024-03-08T06:17:14;99803.28;;;20.68;26.33
62237;BME280;69163;48.778;2.308;2024-03-08T06:19:41;99800.55;;;20.66;26.29
62237;BME280;69163;48.778;2.308;2024-03-08T06:22:07;99801.90;;;20.69;26.23
62237;BME280;69163;48.778;2.308;2024-03-08T06:24:32;99796.83;;;20.71;26.20
62237;BME280;69163;48.778;2.308;2024-03-08T06:26:57;99793.77;;;20.71;26.16
62237;BME280;69163;48.778;2.308;2024-03-08T06:29:22;99793.66;;;20.74;26.09
62237;BME280;69163;48.778;2.308;2024-03-08T06:31:47;99797.15;;;20.50;26.10
62237;BME280;69163;48.778;2.308;2024-03-08T06:34:14;99795.32;;;20.69;26.13
62237;BME280;69163;48.778;2.308;2024-03-08T06:36:39;99794.07;;;20.66;26.11
62237;BME280;69163;48.778;2.308;2024-03-08T06:39:05;99794.13;;;20.62;26.13
62237;BME280;69163;48.778;2.308;2024-03-08T06:41:30;99793.04;;;20.90;26.08
62237;BME280;69163;48.778;2.308;2024-03-08T06:43:56;99792.90;;;20.91;26.01
62237;BME280;69163;48.778;2.308;2024-03-08T06:46:22;99797.31;;;20.67;25.96
62237;BME280;69163;48.778;2.308;2024-03-08T06:48:47;99796.35;;;20.46;25.93
62237;BME280;69163;48.778;2.308;2024-03-08T06:51:13;99790.78;;;20.70;25.89
62237;BME280;69163;48.778;2.308;2024-03-08T06:53:38;99785.12;;;20.66;25.92
62237;BME280;69163;48.778;2.308;2024-03-08T06:56:04;99779.48;;;20.66;25.88
62237;BME280;69163;48.778;2.308;2024-03-08T06:58:29;99778.98;;;20.44;25.87
62237;BME280;69163;48.778;2.308;2024-03-08T07:00:54;99774.89;;;20.40;25.85
62237;BME280;69163;48.778;2.308;2024-03-08T07:03:20;99772.65;;;20.63;25.86
62237;BME280;69163;48.778;2.308;2024-03-08T07:05:45;99775.35;;;20.42;25.81
62237;BME280;69163;48.778;2.308;2024-03-08T07:08:11;99774.45;;;20.42;25.82
62237;BME280;69163;48.778;2.308;2024-03-08T07:10:36;99771.10;;;20.46;25.76
62237;BME280;69163;48.778;2.308;2024-03-08T07:13:01;99771.23;;;20.70;25.77
62237;BME280;69163;48.778;2.308;2024-03-08T07:15:27;99768.85;;;20.66;25.79
62237;BME280;69163;48.778;2.308;2024-03-08T07:17:52;99763.23;;;20.88;25.77
62237;BME280;69163;48.778;2.308;2024-03-08T07:20:18;99761.72;;;20.63;25.75
62237;BME280;69163;48.778;2.308;2024-03-08T07:22:43;99762.89;;;20.63;25.74
62237;BME280;69163;48.778;2.308;2024-03-08T07:25:10;99761.36;;;20.69;25.68
62237;BME280;69163;48.778;2.308;2024-03-08T07:27:35;99762.60;;;20.66;25.64
62237;BME280;69163;48.778;2.308;2024-03-08T07:29:59;99761.46;;;20.68;25.61
62237;BME280;69163;48.778;2.308;2024-03-08T07:32:25;99763.16;;;20.45;25.59
62237;BME280;69163;48.778;2.308;2024-03-08T07:34:51;99764.84;;;20.19;25.60
62237;BME280;69163;48.778;2.308;2024-03-08T07:37:16;99766.34;;;20.42;25.63
62237;BME280;69163;48.778;2.308;2024-03-08T07:39:42;99765.74;;;20.39;25.64
62237;BME280;69163;48.778;2.308;2024-03-08T07:42:07;99764.60;;;20.58;25.62
62237;BME280;69163;48.778;2.308;2024-03-08T07:44:32;99765.08;;;20.58;25.60
62237;BME280;69163;48.778;2.308;2024-03-08T07:46:57;99758.99;;;20.36;25.53
62237;BME280;69163;48.778;2.308;2024-03-08T07:49:22;99758.46;;;20.65;25.53
62237;BME280;69163;48.778;2.308;2024-03-08T07:51:48;99756.87;;;20.15;25.49
62237;BME280;69163;48.778;2.308;2024-03-08T07:54:13;99756.57;;;20.62;25.52
62237;BME280;69163;48.778;2.308;2024-03-08T07:56:39;99756.24;;;20.58;25.49
62237;BME280;69163;48.778;2.308;2024-03-08T07:59:04;99753.40;;;20.31;25.51
62237;BME280;69163;48.778;2.308;2024-03-08T08:01:30;99749.90;;;20.30;25.49
62237;BME280;69163;48.778;2.308;2024-03-08T08:03:55;99748.84;;;20.33;25.51
62237;BME280;69163;48.778;2.308;2024-03-08T08:06:20;99749.54;;;20.57;25.50
62237;BME280;69163;48.778;2.308;2024-03-08T08:08:46;99749.22;;;20.57;25.49
62237;BME280;69163;48.778;2.308;2024-03-08T08:11:11;99742.47;;;20.58;25.44
62237;BME280;69163;48.778;2.308;2024-03-08T08:13:36;99741.48;;;20.61;25.41
62237;BME280;69163;48.778;2.308;2024-03-08T08:16:02;99738.71;;;20.10;25.42
62237;BME280;69163;48.778;2.308;2024-03-08T08:18:27;99732.31;;;20.30;25.48
62237;BME280;69163;48.778;2.308;2024-03-08T08:20:52;99725.75;;;20.29;25.47
62237;BME280;69163;48.778;2.308;2024-03-08T08:23:18;99728.51;;;20.05;25.45
62237;BME280;69163;48.778;2.308;2024-03-08T08:25:43;99726.51;;;20.53;25.43
62237;BME280;69163;48.778;2.308;2024-03-08T08:28:09;99725.86;;;20.29;25.37
62237;BME280;69163;48.778;2.308;2024-03-08T08:30:34;99727.62;;;20.48;25.42
62237;BME280;69163;48.778;2.308;2024-03-08T08:32:59;99727.59;;;20.14;25.86
62237;BME280;69163;48.778;2.308;2024-03-08T08:35:24;99728.60;;;20.32;26.55
62237;BME280;69163;48.778;2.308;2024-03-08T08:37:50;99721.83;;;20.42;26.86
62237;BME280;69163;48.778;2.308;2024-03-08T08:40:16;99720.48;;;20.45;26.83
62237;BME280;69163;48.778;2.308;2024-03-08T08:42:41;99713.06;;;20.25;27.00
62237;BME280;69163;48.778;2.308;2024-03-08T08:45:07;99710.92;;;20.50;27.03
62237;BME280;69163;48.778;2.308;2024-03-08T08:47:32;99705.20;;;20.49;27.11
62237;BME280;69163;48.778;2.308;2024-03-08T08:49:57;99698.89;;;20.42;27.30
62237;BME280;69163;48.778;2.308;2024-03-08T08:52:23;99697.09;;;20.37;27.29
62237;BME280;69163;48.778;2.308;2024-03-08T08:54:48;99692.24;;;20.11;27.22
62237;BME280;69163;48.778;2.308;2024-03-08T08:57:14;99693.59;;;20.30;27.28
62237;BME280;69163;48.778;2.308;2024-03-08T08:59:39;99685.31;;;20.31;27.31
62237;BME280;69163;48.778;2.308;2024-03-08T09:02:05;99682.65;;;20.32;27.33
62237;BME280;69163;48.778;2.308;2024-03-08T09:04:30;99678.71;;;20.53;27.32
62237;BME280;69163;48.778;2.308;2024-03-08T09:06:56;99682.11;;;20.33;27.36
62237;BME280;69163;48.778;2.308;2024-03-08T09:09:21;99680.16;;;20.39;27.31
62237;BME280;69163;48.778;2.308;2024-03-08T09:11:47;99678.23;;;20.40;27.49
62237;BME280;69163;48.778;2.308;2024-03-08T09:14:12;99674.18;;;20.65;27.46
62237;BME280;69163;48.778;2.308;2024-03-08T09:16:37;99674.85;;;20.40;27.56
62237;BME280;69163;48.778;2.308;2024-03-08T09:19:02;99670.47;;;20.39;27.56
62237;BME280;69163;48.778;2.308;2024-03-08T09:21:27;99666.63;;;20.39;27.36
62237;BME280;69163;48.778;2.308;2024-03-08T09:23:53;99661.69;;;20.36;27.23
62237;BME280;69163;48.778;2.308;2024-03-08T09:26:18;99661.48;;;20.36;27.53
62237;BME280;69163;48.778;2.308;2024-03-08T09:28:43;99658.05;;;20.65;27.45
62237;BME280;69163;48.778;2.308;2024-03-08T09:31:09;99656.15;;;20.44;27.37
62237;BME280;69163;48.778;2.308;2024-03-08T09:33:34;99653.78;;;20.66;27.40
62237;BME280;69163;48.778;2.308;2024-03-08T09:35:59;99649.92;;;20.43;27.32
62237;BME280;69163;48.778;2.308;2024-03-08T09:38:25;99647.45;;;20.92;27.32
62237;BME280;69163;48.778;2.308;2024-03-08T09:40:50;99642.33;;;20.43;27.38
62237;BME280;69163;48.778;2.308;2024-03-08T09:43:16;99640.72;;;20.63;27.27
62237;BME280;69163;48.778;2.308;2024-03-08T09:45:41;99636.36;;;20.42;27.18
62237;BME280;69163;48.778;2.308;2024-03-08T09:48:08;99628.51;;;20.44;27.12
62237;BME280;69163;48.778;2.308;2024-03-08T09:50:31;99626.87;;;20.43;27.24
62237;BME280;69163;48.778;2.308;2024-03-08T09:52:57;99621.21;;;20.38;27.31
62237;BME280;69163;48.778;2.308;2024-03-08T09:55:22;99619.13;;;20.33;27.38
62237;BME280;69163;48.778;2.308;2024-03-08T09:57:48;99612.19;;;20.09;27.34
62237;BME280;69163;48.778;2.308;2024-03-08T10:00:18;99610.03;;;20.34;27.25
62237;BME280;69163;48.778;2.308;2024-03-08T10:02:40;99610.07;;;20.59;27.25
62237;BME280;69163;48.778;2.308;2024-03-08T10:05:14;99605.88;;;20.31;27.22
62237;BME280;69163;48.778;2.308;2024-03-08T10:07:29;99607.13;;;20.33;27.16
62237;BME280;69163;48.778;2.308;2024-03-08T10:09:57;99607.63;;;20.30;27.18
62237;BME280;69163;48.778;2.308;2024-03-08T10:12:21;99605.24;;;20.35;27.11
62237;BME280;69163;48.778;2.308;2024-03-08T10:14:46;99602.49;;;20.30;27.14
62237;BME280;69163;48.778;2.308;2024-03-08T10:17:11;99601.54;;;20.30;27.12
62237;BME280;69163;48.778;2.308;2024-03-08T10:19:36;99599.89;;;20.55;27.03
62237;BME280;69163;48.778;2.308;2024-03-08T10:22:02;99591.46;;;20.07;26.99
62237;BME280;69163;48.778;2.308;2024-03-08T10:24:28;99587.27;;;20.32;26.98
62237;BME280;69163;48.778;2.308;2024-03-08T10:26:53;99581.97;;;20.32;26.97
62237;BME280;69163;48.778;2.308;2024-03-08T10:29:18;99583.74;;;20.31;26.97
62237;BME280;69163;48.778;2.308;2024-03-08T10:31:43;99578.16;;;20.07;26.93
62237;BME280;69163;48.778;2.308;2024-03-08T10:34:08;99575.58;;;20.30;26.92
62237;BME280;69163;48.778;2.308;2024-03-08T10:36:34;99577.93;;;20.28;26.94
62237;BME280;69163;48.778;2.308;2024-03-08T10:39:02;99575.69;;;20.31;26.89
62237;BME280;69163;48.778;2.308;2024-03-08T10:41:26;99574.15;;;20.52;26.86
62237;BME280;69163;48.778;2.308;2024-03-08T10:44:03;99571.01;;;20.25;26.86
62237;BME280;69163;48.778;2.308;2024-03-08T10:46:24;99562.20;;;20.28;26.85
62237;BME280;69163;48.778;2.308;2024-03-08T10:48:46;99563.98;;;20.26;26.82
62237;BME280;69163;48.778;2.308;2024-03-08T10:51:07;99559.72;;;19.82;26.76
62237;BME280;69163;48.778;2.308;2024-03-08T10:53:32;99552.40;;;20.24;26.81
62237;BME280;69163;48.778;2.308;2024-03-08T10:55:57;99553.15;;;20.27;26.74
62237;BME280;69163;48.778;2.308;2024-03-08T10:58:22;99551.49;;;20.26;26.74
62237;BME280;69163;48.778;2.308;2024-03-08T11:00:48;99548.42;;;20.23;26.71
62237;BME280;69163;48.778;2.308;2024-03-08T11:05:42;99543.77;;;20.26;26.62
62237;BME280;69163;48.778;2.308;2024-03-08T11:08:05;99538.38;;;20.02;26.63
62237;BME280;69163;48.778;2.308;2024-03-08T11:10:46;99537.05;;;20.25;26.62
62237;BME280;69163;48.778;2.308;2024-03-08T11:12:54;99538.00;;;19.98;26.60
62237;BME280;69163;48.778;2.308;2024-03-08T11:15:19;99532.92;;;19.81;26.54
62237;BME280;69163;48.778;2.308;2024-03-08T11:17:46;99526.34;;;20.49;26.57
62237;BME280;69163;48.778;2.308;2024-03-08T11:20:14;99525.32;;;20.01;26.55
62237;BME280;69163;48.778;2.308;2024-03-08T11:22:37;99524.20;;;20.23;26.56
62237;BME280;69163;48.778;2.308;2024-03-08T11:25:04;99521.48;;;20.19;26.55
62237;BME280;69163;48.778;2.308;2024-03-08T11:27:28;99515.98;;;20.00;26.48
62237;BME280;69163;48.778;2.308;2024-03-08T11:29:59;99512.33;;;19.70;26.48
62237;BME280;69163;48.778;2.308;2024-03-08T11:32:17;99511.70;;;20.15;26.48
62237;BME280;69163;48.778;2.308;2024-03-08T11:34:42;99508.26;;;20.20;26.43
62237;BME280;69163;48.778;2.308;2024-03-08T11:37:12;99503.49;;;20.23;26.43
62237;BME280;69163;48.778;2.308;2024-03-08T11:39:32;99498.21;;;20.66;26.47
62237;BME280;69163;48.778;2.308;2024-03-08T11:41:57;99499.10;;;20.20;26.47
62237;BME280;69163;48.778;2.308;2024-03-08T11:44:25;99500.39;;;20.17;26.45
62237;BME280;69163;48.778;2.308;2024-03-08T11:46:47;99495.88;;;20.17;26.43
62237;BME280;69163;48.778;2.308;2024-03-08T11:49:13;99487.06;;;20.36;26.42
62237;BME280;69163;48.778;2.308;2024-03-08T11:51:39;99485.01;;;20.36;26.40
62237;BME280;69163;48.778;2.308;2024-03-08T11:54:04;99488.44;;;20.18;26.37
62237;BME280;69163;48.778;2.308;2024-03-08T11:56:29;99485.00;;;20.12;26.42
62237;BME280;69163;48.778;2.308;2024-03-08T11:58:59;99478.41;;;19.91;26.37
62237;BME280;69163;48.778;2.308;2024-03-08T12:01:20;99467.46;;;19.90;26.39
62237;BME280;69163;48.778;2.308;2024-03-08T12:03:45;99473.46;;;20.39;26.37
62237;BME280;69163;48.778;2.308;2024-03-08T12:06:11;99466.19;;;20.13;26.37
62237;BME280;69163;48.778;2.308;2024-03-08T12:08:36;99463.21;;;20.12;26.36
62237;BME280;69163;48.778;2.308;2024-03-08T12:11:01;99450.58;;;20.13;26.38
62237;BME280;69163;48.778;2.308;2024-03-08T12:13:26;99447.09;;;20.11;26.39
62237;BME280;69163;48.778;2.308;2024-03-08T12:15:52;99442.16;;;19.94;26.40
62237;BME280;69163;48.778;2.308;2024-03-08T12:18:17;99439.39;;;20.11;26.37
62237;BME280;69163;48.778;2.308;2024-03-08T12:20:43;99434.10;;;20.11;26.37
62237;BME280;69163;48.778;2.308;2024-03-08T12:23:07;99430.57;;;20.09;26.38
62237;BME280;69163;48.778;2.308;2024-03-08T12:25:35;99425.99;;;20.07;26.42
62237;BME280;69163;48.778;2.308;2024-03-08T12:30:26;99423.45;;;20.29;26.38
62237;BME280;69163;48.778;2.308;2024-03-08T12:32:53;99420.37;;;20.05;26.41
62237;BME280;69163;48.778;2.308;2024-03-08T12:35:14;99418.23;;;20.03;26.43
62237;BME280;69163;48.778;2.308;2024-03-08T12:37:41;99419.49;;;20.02;26.42
62237;BME280;69163;48.778;2.308;2024-03-08T12:40:07;99414.36;;;20.28;26.39
62237;BME280;69163;48.778;2.308;2024-03-08T12:42:31;99407.10;;;20.25;26.43
62237;BME280;69163;48.778;2.308;2024-03-08T12:44:56;99404.98;;;19.79;26.41
62237;BME280;69163;48.778;2.308;2024-03-08T12:47:22;99401.54;;;20.29;26.40
62237;BME280;69163;48.778;2.308;2024-03-08T12:49:48;99396.52;;;20.29;26.39
62237;BME280;69163;48.778;2.308;2024-03-08T12:52:14;99396.54;;;20.25;26.42